Birdseye, IN (47513)

5:27 PM EDT on April 27, 2017 (GMT -0400)
MIN017 | | Change Station

Elev 508 ft 38.23 °N, 86.71 °W | Updated 7 hours ago

Overcast
Overcast
54.0 °F
Feels Like 54.0 °F
N
9.0
Wind Variable Wind from West
Gusts 15.0 mph

Today
High -- | Low -- °F
--% Chance of Precip.
Yesterday
High -- | Low -- °F
Precip. -- in
Pressure 29.81 in
Visibility 10.0 miles
Clouds Scattered Clouds 3000 ft
Overcast 3600 ft
Dew Point 52 °F
Humidity 92%
Rainfall 0.13 in
Snow Depth Not available.
6:54 AM 8:34 PM
Waxing Crescent, 3% visible
METAR KHNB 272056Z AUTO 22010KT 10SM SCT030 OVC036 14/09 A2982 RMK AO2 SLP095 T01440094 51015
Pressure 29.81 in
Visibility 10.0 miles
Clouds Scattered Clouds 3000 ft
Overcast 3600 ft
Dew Point 52 °F
Humidity 92%
Rainfall 0.13 in
Snow Depth Not available.
6:54 AM 8:34 PM
Waxing Crescent, 3% visible
METAR KHNB 272056Z AUTO 22010KT 10SM SCT030 OVC036 14/09 A2982 RMK AO2 SLP095 T01440094 51015

Get Severe Weather Alerts

Thanks for signing up!

Be on the lookout for a verification email in your inbox.

You'll start receiving the daily forecast at 8 AM.

×

10-Day Weather Forecast

Almanac

Astronomy

Apr. 27, 2017 Rise Set
Actual Time
Civil Twilight
Nautical Twilight
Astronomical Twilight
Moon
Length of Visible Light
Length of Day
Tomorrow will be .
, % of the Moon is Illuminated

Today's Extremes

State Highs State Lows

Community

WunderPhotos

WunderBlog® & News

Nearby

Air Quality

  Air Quality AQ Index Pollutant
Not available.

Snow Depth

Station Depth Elevation

Earthquake Activity

City Distance Mag. Time & Date
Minimum magnitude displayed is 2.5.

Coastal Water Temperatures

Place Temperature

Stations

Nearby Weather Stations

Station Location Temp. Windchill Dew Point Humidity Wind Precip. Elev Updated Type
                   

Watches & Warnings

There are currently no watches in effect.